Time;durP1;ratioP1;P1;durP2;ratioP2;P2;SDS_P1;SDS_P2;PMS_P1;PMS_P2;Temp;Humidity;BMP_temperature;BMP_pressure;BME280_temperature;BME280_humidity;BME280_pressure;Samples;Min_cycle;Max_cycle;Signal;HPM_P1;HPM_P2
2022/04/20 00:01:00;;;;;;;1.42;1.15;;;7.30;99.90;;;;;;5095118;28;20032;-74
2022/04/20 00:03:26;;;;;;;2.13;1.02;;;7.50;99.90;;;;;;5077950;28;20043;-72
2022/04/20 00:05:52;;;;;;;2.53;1.10;;;7.20;99.90;;;;;;5094551;28;20048;-73
2022/04/20 00:08:18;;;;;;;0.50;0.50;;;7.10;99.90;;;;;;5078040;28;20032;-72
2022/04/20 00:10:44;;;;;;;1.55;0.70;;;7.10;99.90;;;;;;5094904;28;20032;-73
2022/04/20 00:13:10;;;;;;;4.88;1.25;;;7.80;99.90;;;;;;5078077;28;20036;-74
2022/04/20 00:15:35;;;;;;;1.73;1.00;;;7.10;99.90;;;;;;5077703;28;20154;-74
2022/04/20 00:18:01;;;;;;;1.45;1.10;;;7.00;99.90;;;;;;5094462;28;20406;-74
2022/04/20 00:20:27;;;;;;;1.60;1.13;;;7.00;99.90;;;;;;5094545;28;20574;-74
2022/04/20 00:22:53;;;;;;;2.25;1.00;;;7.00;99.90;;;;;;5094342;28;20044;-74
2022/04/20 00:25:18;;;;;;;3.28;1.00;;;6.90;99.90;;;;;;5094330;28;20127;-75
2022/04/20 00:27:44;;;;;;;1.52;1.05;;;6.90;99.90;;;;;;5077259;28;20498;-73
2022/04/20 00:30:12;;;;;;;1.20;0.90;;;6.90;99.90;;;;;;5077754;28;20078;-73
2022/04/20 00:32:39;;;;;;;3.90;1.20;;;6.90;99.90;;;;;;5094166;28;20044;-73
2022/04/20 00:35:06;;;;;;;2.75;1.15;;;6.80;99.90;;;;;;5094142;28;20384;-73
2022/04/20 00:37:33;;;;;;;2.10;1.17;;;6.80;99.90;;;;;;5060632;28;20039;-74
2022/04/20 00:39:59;;;;;;;2.47;1.00;;;6.80;99.90;;;;;;5077564;28;20391;-73
2022/04/20 00:42:27;;;;;;;1.30;0.88;;;6.70;99.90;;;;;;5076277;28;20040;-73
2022/04/20 00:44:54;;;;;;;1.17;0.77;;;6.70;99.90;;;;;;5093935;28;20070;-74
2022/04/20 00:47:20;;;;;;;1.42;0.70;;;6.70;99.90;;;;;;5077325;28;20387;-74
2022/04/20 00:49:47;;;;;;;1.70;1.15;;;7.30;99.90;;;;;;5060930;28;20088;-73
2022/04/20 00:52:14;;;;;;;1.98;1.20;;;6.60;99.90;;;;;;5077218;28;20040;-73
2022/04/20 00:54:40;;;;;;;2.25;1.20;;;7.20;99.90;;;;;;5060485;28;20048;-73
2022/04/20 00:57:06;;;;;;;2.28;0.85;;;6.60;99.90;;;;;;5093750;28;20059;-73
2022/04/20 00:59:34;;;;;;;3.53;1.13;;;6.60;99.90;;;;;;5077022;28;20044;-73
2022/04/20 01:02:01;;;;;;;1.60;0.95;;;6.50;99.90;;;;;;5093689;28;20051;-74
2022/04/20 01:04:27;;;;;;;1.65;1.15;;;6.60;99.90;;;;;;5076953;28;20442;-73
2022/04/20 01:06:53;;;;;;;2.58;1.45;;;6.50;99.90;;;;;;5093669;28;20047;-73
2022/04/20 01:09:19;;;;;;;3.53;1.45;;;6.50;99.90;;;;;;5076665;28;20036;-73
2022/04/20 01:11:45;;;;;;;1.77;1.40;;;6.40;99.90;;;;;;5093547;28;20403;-73
2022/04/20 01:14:12;;;;;;;4.32;2.05;;;6.40;99.90;;;;;;5093956;28;20131;-73
2022/04/20 01:16:38;;;;;;;1.50;0.90;;;6.40;99.90;;;;;;5076887;28;20086;-73
2022/04/20 01:19:03;;;;;;;1.23;1.10;;;6.40;99.90;;;;;;5076459;28;20075;-74
2022/04/20 01:21:30;;;;;;;2.05;1.15;;;6.40;99.90;;;;;;5076491;28;20044;-73
2022/04/20 01:23:56;;;;;;;2.67;1.50;;;6.30;99.90;;;;;;5093381;28;20044;-73
2022/04/20 01:26:21;;;;;;;1.75;0.80;;;6.30;99.90;;;;;;5076709;28;20047;-73
2022/04/20 01:28:48;;;;;;;1.48;1.15;;;6.30;99.90;;;;;;5093107;28;20109;-73
2022/04/20 01:31:17;;;;;;;1.98;1.08;;;6.30;99.90;;;;;;5076453;28;20036;-73
2022/04/20 01:33:44;;;;;;;4.60;2.03;;;6.30;99.90;;;;;;5093151;28;20044;-73
2022/04/20 01:36:11;;;;;;;1.00;0.93;;;7.20;99.90;;;;;;5076301;28;20036;-73
2022/04/20 01:38:40;;;;;;;0.47;0.25;;;6.20;99.90;;;;;;5076565;28;20048;-73
2022/04/20 01:41:05;;;;;;;0.75;0.75;;;6.20;99.90;;;;;;5093259;28;20438;-74
2022/04/20 01:43:32;;;;;;;0.77;0.70;;;6.10;99.90;;;;;;5092990;28;20092;-73
2022/04/20 01:45:58;;;;;;;1.10;0.60;;;6.00;99.90;;;;;;5092836;28;20043;-73
2022/04/20 01:48:24;;;;;;;1.60;1.05;;;6.00;99.90;;;;;;5093067;28;20328;-74
2022/04/20 01:53:34;;;;;;;3.72;1.05;;;6.00;99.90;;;;;;5092434;28;20044;-74
2022/04/20 01:56:00;;;;;;;3.15;1.88;;;6.70;99.90;;;;;;5092679;28;20044;-73
2022/04/20 01:58:29;;;;;;;2.78;1.17;;;6.20;99.90;;;;;;5076192;28;20044;-73
2022/04/20 02:00:54;;;;;;;2.20;1.38;;;5.90;99.90;;;;;;5092756;28;20054;-74
2022/04/20 02:03:20;;;;;;;2.38;1.25;;;5.90;99.90;;;;;;5092511;28;20126;-73
2022/04/20 02:05:46;;;;;;;2.05;1.10;;;5.90;99.90;;;;;;5092847;28;20040;-74
2022/04/20 02:08:12;;;;;;;1.75;1.33;;;5.90;99.90;;;;;;5075761;28;20580;-73
2022/04/20 02:10:37;;;;;;;2.25;1.00;;;5.90;99.90;;;;;;5092375;28;20040;-74
2022/04/20 02:13:03;;;;;;;1.85;1.20;;;5.90;99.90;;;;;;5075556;28;20040;-73
2022/04/20 02:15:29;;;;;;;1.60;1.15;;;5.90;99.90;;;;;;5075439;28;20043;-74
2022/04/20 02:17:55;;;;;;;1.98;0.75;;;5.50;99.90;;;;;;5092423;28;20487;-73
2022/04/20 02:20:21;;;;;;;1.63;1.02;;;5.80;99.90;;;;;;5092430;28;20055;-73
2022/04/20 02:22:46;;;;;;;1.98;0.88;;;5.80;99.90;;;;;;5092191;28;20051;-73
2022/04/20 02:25:12;;;;;;;2.80;1.38;;;5.80;99.90;;;;;;5092374;28;20131;-74
2022/04/20 02:27:38;;;;;;;0.95;0.63;;;5.70;99.90;;;;;;5092353;28;20063;-73
2022/04/20 02:30:05;;;;;;;2.15;1.15;;;5.70;99.90;;;;;;5092513;28;20046;-73
2022/04/20 02:32:30;;;;;;;1.90;1.63;;;5.70;99.90;;;;;;5092090;28;20040;-73
2022/04/20 02:34:56;;;;;;;1.65;0.88;;;5.70;99.90;;;;;;5075446;28;20040;-73
2022/04/20 02:37:23;;;;;;;1.10;0.75;;;5.70;99.90;;;;;;5075374;28;20112;-73
2022/04/20 02:39:49;;;;;;;2.15;1.45;;;5.50;99.90;;;;;;5092187;28;20110;-73
2022/04/20 02:42:16;;;;;;;1.98;1.20;;;5.80;99.90;;;;;;5075375;28;20411;-73
2022/04/20 02:44:43;;;;;;;2.20;1.17;;;6.40;99.90;;;;;;5091804;28;20039;-73
2022/04/20 02:47:09;;;;;;;1.50;1.08;;;5.60;99.90;;;;;;5092170;28;20032;-74
2022/04/20 02:49:35;;;;;;;1.88;1.05;;;5.60;99.90;;;;;;5075170;28;20442;-74
2022/04/20 02:52:01;;;;;;;1.08;0.73;;;5.60;99.90;;;;;;5091831;28;20388;-73
2022/04/20 02:54:27;;;;;;;4.20;1.00;;;6.30;99.90;;;;;;5091870;28;20047;-73
2022/04/20 02:56:53;;;;;;;2.38;0.82;;;5.60;99.90;;;;;;5092063;28;20127;-73
2022/04/20 02:59:19;;;;;;;1.58;1.02;;;5.60;99.90;;;;;;5091609;28;20457;-73
2022/04/20 03:01:44;;;;;;;1.52;1.00;;;5.50;99.90;;;;;;5091643;28;20040;-73
2022/04/20 03:04:11;;;;;;;1.00;0.90;;;5.50;99.90;;;;;;5091659;28;20131;-73
2022/04/20 03:06:37;;;;;;;1.95;1.17;;;5.50;99.90;;;;;;5094756;28;20453;-73
2022/04/20 03:09:03;;;;;;;1.85;0.85;;;5.50;99.90;;;;;;5079328;28;20036;-73
2022/04/20 03:11:29;;;;;;;0.60;0.60;;;5.50;99.90;;;;;;5095857;28;20044;-74
2022/04/20 03:13:56;;;;;;;5.10;1.45;;;5.50;99.90;;;;;;5095754;28;20556;-73
2022/04/20 03:16:23;;;;;;;2.33;1.08;;;5.50;99.90;;;;;;5095828;28;20052;-73
2022/04/20 03:18:52;;;;;;;1.75;1.05;;;5.50;99.90;;;;;;5095776;28;20106;-73
2022/04/20 03:21:17;;;;;;;2.67;1.67;;;5.60;99.90;;;;;;5078684;28;20036;-73
2022/04/20 03:23:43;;;;;;;2.47;1.42;;;5.40;99.90;;;;;;5095527;28;20400;-73
2022/04/20 03:26:09;;;;;;;3.83;1.00;;;5.40;99.90;;;;;;5078913;28;20610;-73
2022/04/20 03:28:35;;;;;;;2.10;1.25;;;5.40;99.90;;;;;;5095804;28;20048;-73
2022/04/20 03:31:01;;;;;;;2.65;1.23;;;5.30;99.90;;;;;;5078727;28;20048;-73
2022/04/20 03:33:27;;;;;;;2.17;1.17;;;5.40;99.90;;;;;;5078550;28;20143;-73
2022/04/20 03:35:53;;;;;;;1.42;0.80;;;5.30;99.90;;;;;;5095768;28;20036;-73
2022/04/20 03:38:19;;;;;;;0.65;0.65;;;5.30;99.90;;;;;;5078588;28;20118;-74
2022/04/20 03:40:46;;;;;;;1.15;0.82;;;5.30;99.90;;;;;;5078859;28;20102;-73
2022/04/20 03:43:12;;;;;;;1.23;0.75;;;5.30;99.90;;;;;;5078703;28;20036;-73
2022/04/20 03:45:38;;;;;;;2.33;0.88;;;5.20;99.90;;;;;;5095285;28;20043;-73
2022/04/20 03:48:04;;;;;;;2.20;1.45;;;5.30;99.90;;;;;;5095386;28;20093;-73
2022/04/20 03:50:30;;;;;;;6.38;1.27;;;5.20;99.90;;;;;;5095294;28;20036;-73
2022/04/20 03:52:56;;;;;;;1.85;1.08;;;5.20;99.90;;;;;;5095108;28;20052;-73
2022/04/20 03:55:22;;;;;;;1.10;0.95;;;5.10;99.90;;;;;;5078677;28;20043;-74
2022/04/20 03:57:47;;;;;;;2.40;0.95;;;5.20;99.90;;;;;;5094878;28;20050;-73
2022/04/20 04:00:14;;;;;;;1.58;1.33;;;5.20;99.90;;;;;;5094979;28;20040;-73
2022/04/20 04:02:40;;;;;;;1.95;0.75;;;5.20;99.90;;;;;;5095017;28;20123;-74
2022/04/20 04:05:06;;;;;;;0.68;0.68;;;5.20;99.90;;;;;;5094802;28;20479;-73
2022/04/20 04:07:31;;;;;;;2.42;1.13;;;5.20;99.90;;;;;;5077896;28;20032;-73
2022/04/20 04:09:57;;;;;;;2.95;0.80;;;5.20;99.90;;;;;;5095010;28;20040;-73
2022/04/20 04:12:23;;;;;;;1.98;1.30;;;5.10;99.90;;;;;;5078064;28;20036;-73
2022/04/20 04:14:49;;;;;;;2.60;0.93;;;5.40;99.90;;;;;;5094576;28;20046;-73
2022/04/20 04:17:15;;;;;;;2.63;1.05;;;5.20;99.90;;;;;;5077823;28;20499;-74
2022/04/20 04:19:41;;;;;;;1.02;0.70;;;5.20;99.90;;;;;;5095150;28;20040;-73
2022/04/20 04:22:07;;;;;;;2.10;1.13;;;5.00;99.90;;;;;;5094406;28;20226;-73
2022/04/20 04:24:35;;;;;;;1.08;0.73;;;5.10;99.90;;;;;;5094192;28;20123;-73
2022/04/20 04:27:06;;;;;;;1.55;0.77;;;5.10;99.90;;;;;;5077710;28;20395;-73
2022/04/20 04:29:32;;;;;;;2.38;1.60;;;5.10;99.90;;;;;;5094283;28;20620;-73
2022/04/20 04:31:59;;;;;;;2.70;1.55;;;5.40;99.90;;;;;;5060587;28;20040;-73
2022/04/20 04:34:25;;;;;;;1.15;0.75;;;5.10;99.90;;;;;;5094333;28;20040;-73
2022/04/20 04:36:51;;;;;;;1.92;1.30;;;5.10;99.90;;;;;;5094243;28;20035;-73
2022/04/20 04:39:20;;;;;;;3.25;1.08;;;6.00;99.90;;;;;;5094215;28;20050;-74
2022/04/20 04:41:47;;;;;;;1.98;1.38;;;5.10;99.90;;;;;;5077171;28;20040;-73
2022/04/20 04:44:13;;;;;;;1.45;1.08;;;5.40;99.90;;;;;;5077287;28;20130;-74
2022/04/20 04:49:22;;;;;;;1.25;0.60;;;5.80;99.90;;;;;;5079699;28;20055;-74
2022/04/20 04:51:49;;;;;;;0.40;0.40;;;5.10;99.90;;;;;;5093930;28;20039;-74
2022/04/20 04:54:15;;;;;;;3.05;0.95;;;5.10;99.90;;;;;;5093948;28;20079;-74
2022/04/20 04:56:41;;;;;;;1.55;1.15;;;5.10;99.90;;;;;;5094122;28;20571;-73
2022/04/20 04:59:07;;;;;;;1.35;0.77;;;5.30;99.90;;;;;;5093961;28;20090;-73
2022/04/20 05:01:33;;;;;;;2.88;1.35;;;5.20;99.90;;;;;;5094083;28;20051;-74
2022/04/20 05:03:59;;;;;;;2.15;1.20;;;5.20;99.90;;;;;;5060221;28;20048;-73
2022/04/20 05:06:25;;;;;;;0.95;0.70;;;5.20;99.90;;;;;;5093714;28;20402;-73
2022/04/20 05:08:50;;;;;;;1.90;1.23;;;5.20;99.90;;;;;;5076745;28;20435;-74
2022/04/20 05:11:17;;;;;;;2.45;1.05;;;5.30;99.90;;;;;;5093611;28;20036;-73
2022/04/20 05:13:42;;;;;;;1.60;0.82;;;5.30;99.90;;;;;;5093440;28;20123;-73
2022/04/20 05:16:09;;;;;;;0.95;0.50;;;5.90;99.90;;;;;;5093321;28;20104;-73
2022/04/20 05:18:34;;;;;;;3.15;1.35;;;5.40;99.90;;;;;;5076518;28;20126;-73
2022/04/20 05:21:00;;;;;;;1.55;1.08;;;5.40;99.90;;;;;;5093368;28;20079;-74
2022/04/20 05:23:26;;;;;;;2.17;1.10;;;6.10;99.90;;;;;;5076299;28;20044;-73
2022/04/20 05:25:52;;;;;;;1.65;1.35;;;5.50;99.90;;;;;;5076338;28;20415;-74
2022/04/20 05:28:17;;;;;;;0.73;0.73;;;5.60;99.90;;;;;;5092787;28;20491;-73
2022/04/20 05:30:43;;;;;;;1.10;0.85;;;5.70;99.90;;;;;;5076540;28;20048;-74
2022/04/20 05:33:09;;;;;;;0.70;0.70;;;5.70;99.90;;;;;;5076400;28;20040;-73
2022/04/20 05:35:34;;;;;;;1.83;0.95;;;5.80;99.90;;;;;;5093205;28;20039;-74
2022/04/20 05:43:28;;;;;;;2.97;1.25;;;6.00;99.90;;;;;;5092808;28;20104;-73
2022/04/20 05:45:54;;;;;;;2.13;1.33;;;6.20;99.90;;;;;;5076119;28;20479;-73
2022/04/20 05:48:20;;;;;;;2.55;1.40;;;6.20;99.90;;;;;;5092649;28;20035;-74
2022/04/20 05:50:46;;;;;;;1.58;1.13;;;6.20;99.90;;;;;;5076067;28;20032;-74
2022/04/20 05:53:12;;;;;;;1.15;0.90;;;6.40;99.90;;;;;;5076106;28;20483;-74
2022/04/20 05:55:37;;;;;;;1.83;1.27;;;6.50;99.90;;;;;;5092789;28;20047;-76
2022/04/20 05:58:03;;;;;;;2.78;1.58;;;6.60;99.90;;;;;;5092617;28;20047;-74
2022/04/20 06:00:30;;;;;;;3.47;1.23;;;6.70;99.90;;;;;;5075734;28;20131;-73
2022/04/20 06:02:57;;;;;;;2.17;1.15;;;6.70;99.90;;;;;;5076039;28;20055;-72
2022/04/20 06:05:23;;;;;;;2.35;1.05;;;6.80;99.90;;;;;;5092312;28;20051;-73
2022/04/20 06:07:49;;;;;;;2.83;1.05;;;6.90;99.90;;;;;;5075340;28;20031;-74
2022/04/20 06:10:17;;;;;;;1.67;1.52;;;7.00;99.90;;;;;;5092051;28;20062;-74
2022/04/20 06:12:43;;;;;;;1.13;1.00;;;7.40;99.90;;;;;;5075370;28;20039;-74
2022/04/20 06:15:09;;;;;;;1.23;0.85;;;7.10;99.90;;;;;;5092341;28;20047;-76
2022/04/20 06:17:35;;;;;;;2.00;1.30;;;7.20;99.90;;;;;;5075259;28;20050;-74
2022/04/20 06:20:01;;;;;;;2.05;0.95;;;7.30;99.90;;;;;;5092022;28;20040;-74
2022/04/20 06:22:27;;;;;;;5.53;1.38;;;7.70;99.90;;;;;;5075164;28;20043;-73
2022/04/20 06:24:53;;;;;;;1.33;0.70;;;7.60;99.90;;;;;;5091907;28;20400;-73
2022/04/20 06:27:18;;;;;;;2.08;1.40;;;7.70;99.90;;;;;;5075398;28;20062;-74
2022/04/20 06:29:44;;;;;;;2.05;0.80;;;7.80;99.90;;;;;;5075023;28;20052;-73
2022/04/20 06:32:10;;;;;;;3.05;1.60;;;7.90;99.90;;;;;;5092089;28;20040;-73
2022/04/20 06:34:36;;;;;;;3.00;1.13;;;8.00;99.90;;;;;;5075017;28;20036;-74
2022/04/20 06:37:03;;;;;;;0.68;0.68;;;8.20;99.90;;;;;;5091735;28;20048;-74
2022/04/20 06:39:29;;;;;;;2.35;1.35;;;8.40;99.90;;;;;;5091907;28;20105;-74
2022/04/20 06:41:54;;;;;;;2.00;1.17;;;8.50;99.90;;;;;;5075143;28;20499;-74
2022/04/20 06:44:20;;;;;;;1.13;0.90;;;8.70;99.90;;;;;;5074863;28;20132;-74
2022/04/20 06:46:46;;;;;;;1.85;1.25;;;8.90;99.90;;;;;;5074918;28;20101;-74
2022/04/20 06:49:12;;;;;;;1.10;0.90;;;8.90;99.90;;;;;;5091709;28;20036;-74
2022/04/20 06:59:53;;;;;;;1.05;0.98;;;9.40;99.90;;;;;;5091576;28;20055;-75
2022/04/20 07:02:21;;;;;;;4.47;2.00;;;9.50;99.90;;;;;;5091482;28;20153;-74
2022/04/20 07:04:47;;;;;;;0.60;0.60;;;9.60;99.90;;;;;;5074504;28;20047;-75
2022/04/20 07:07:13;;;;;;;4.85;1.63;;;10.00;99.90;;;;;;5091453;28;20120;-75
2022/04/20 07:09:39;;;;;;;2.60;1.00;;;9.80;99.90;;;;;;5091439;28;20044;-75
2022/04/20 07:12:05;;;;;;;1.50;1.00;;;9.70;99.90;;;;;;5091363;28;20047;-75
2022/04/20 07:14:30;;;;;;;1.92;1.25;;;9.90;99.90;;;;;;5091691;28;20070;-75
2022/04/20 07:16:56;;;;;;;1.95;1.05;;;10.00;99.90;;;;;;5091409;28;20048;-75
2022/04/20 07:19:22;;;;;;;4.82;1.50;;;10.10;99.90;;;;;;5074504;28;20048;-75
2022/04/20 07:21:48;;;;;;;1.45;1.05;;;10.30;99.90;;;;;;5091265;28;20047;-75
2022/04/20 07:24:14;;;;;;;3.13;1.33;;;10.40;99.90;;;;;;5091326;28;20044;-75
2022/04/20 07:26:40;;;;;;;1.38;1.00;;;10.60;99.90;;;;;;5075068;28;20040;-75
2022/04/20 07:29:05;;;;;;;1.23;0.77;;;10.70;99.90;;;;;;5091361;28;20052;-75
2022/04/20 07:31:31;;;;;;;1.42;0.98;;;10.80;99.90;;;;;;5057808;28;20502;-75
2022/04/20 07:33:58;;;;;;;1.77;1.20;;;10.90;99.90;;;;;;5091469;28;20063;-76
2022/04/20 07:36:23;;;;;;;2.67;1.23;;;11.00;99.90;;;;;;5074717;28;20047;-75
2022/04/20 07:38:49;;;;;;;1.90;1.08;;;11.10;99.90;;;;;;5074404;28;20044;-75
2022/04/20 07:41:15;;;;;;;2.88;1.52;;;11.20;99.90;;;;;;5091230;28;20078;-75
2022/04/20 07:43:41;;;;;;;1.65;0.90;;;11.30;99.90;;;;;;5074437;28;20507;-74
2022/04/20 07:46:07;;;;;;;2.30;1.33;;;11.40;99.90;;;;;;5091402;28;20123;-75
2022/04/20 07:48:32;;;;;;;0.70;0.65;;;11.50;99.90;;;;;;5091137;28;20093;-75
2022/04/20 07:51:00;;;;;;;3.30;1.27;;;11.60;99.90;;;;;;5074333;28;20040;-75
2022/04/20 07:53:27;;;;;;;1.15;0.82;;;12.00;99.90;;;;;;5094890;28;20094;-75
2022/04/20 07:55:52;;;;;;;3.63;1.00;;;11.80;99.70;;;;;;5094823;28;20039;-76
2022/04/20 07:58:18;;;;;;;1.13;0.63;;;11.80;99.50;;;;;;5078031;28;20036;-76
2022/04/20 08:00:45;;;;;;;1.20;0.80;;;11.80;98.70;;;;;;5094817;28;20036;-76
2022/04/20 08:03:18;;;;;;;1.13;0.93;;;12.00;98.90;;;;;;5078065;28;20036;-74
2022/04/20 08:05:49;;;;;;;1.85;0.77;;;12.00;98.60;;;;;;5094571;28;20123;-74
2022/04/20 08:08:16;;;;;;;1.13;0.82;;;12.10;98.70;;;;;;5094724;28;20044;-75
2022/04/20 08:10:43;;;;;;;1.25;0.80;;;12.20;97.60;;;;;;5094844;28;20515;-75
2022/04/20 08:15:54;;;;;;;1.77;1.02;;;12.40;97.50;;;;;;5094513;28;20051;-75
2022/04/20 08:18:21;;;;;;;1.35;1.10;;;12.50;97.40;;;;;;5094331;28;20040;-76
2022/04/20 08:20:47;;;;;;;1.15;0.85;;;12.50;96.80;;;;;;5094349;28;20040;-75
2022/04/20 08:23:13;;;;;;;1.65;0.90;;;12.70;97.00;;;;;;5094306;28;20131;-76
2022/04/20 08:25:39;;;;;;;0.77;0.73;;;12.90;97.20;;;;;;5094188;28;20132;-75
2022/04/20 08:28:06;;;;;;;1.73;0.90;;;13.00;95.80;;;;;;5060633;28;20083;-75
2022/04/20 08:30:33;;;;;;;1.17;0.75;;;13.00;95.70;;;;;;5077478;28;20044;-75
2022/04/20 08:32:59;;;;;;;2.15;0.85;;;13.10;95.50;;;;;;5093978;28;20111;-75
2022/04/20 08:35:24;;;;;;;1.63;1.13;;;13.10;93.90;;;;;;5077248;28;20470;-75
2022/04/20 08:37:50;;;;;;;0.63;0.60;;;13.20;95.40;;;;;;5077579;28;20039;-75
2022/04/20 08:40:16;;;;;;;0.88;0.60;;;13.30;95.70;;;;;;5094165;28;20119;-75
2022/04/20 08:42:42;;;;;;;2.22;0.70;;;13.40;95.20;;;;;;5094015;28;20491;-75
2022/04/20 08:45:09;;;;;;;0.68;0.57;;;13.50;94.80;;;;;;5093897;28;20047;-76
2022/04/20 08:47:37;;;;;;;0.70;0.60;;;13.60;94.20;;;;;;5093902;28;20040;-75
2022/04/20 08:50:09;;;;;;;1.00;0.57;;;13.70;94.40;;;;;;5093750;28;20050;-75
2022/04/20 08:52:39;;;;;;;0.77;0.60;;;13.50;92.80;;;;;;5093833;28;20044;-75
2022/04/20 08:55:13;;;;;;;1.05;0.70;;;13.60;93.30;;;;;;5093676;28;20078;-75
2022/04/20 08:57:39;;;;;;;1.23;0.70;;;13.80;93.10;;;;;;5094078;28;20044;-75
2022/04/20 09:00:11;;;;;;;0.50;0.50;;;13.90;92.50;;;;;;5076880;28;20658;-76
2022/04/20 09:02:37;;;;;;;1.25;0.70;;;13.90;91.00;;;;;;5092816;28;20168;-75
2022/04/20 09:05:04;;;;;;;1.00;0.63;;;13.90;90.90;;;;;;5076523;28;20083;-77
2022/04/20 09:07:31;;;;;;;2.35;1.02;;;14.00;91.00;;;;;;5076903;28;20040;-76
2022/04/20 09:09:57;;;;;;;0.60;0.47;;;14.00;91.20;;;;;;5060066;28;20040;-75
2022/04/20 09:12:23;;;;;;;0.93;0.70;;;14.00;90.70;;;;;;5093299;28;20040;-76
2022/04/20 09:14:52;;;;;;;0.40;0.40;;;14.00;90.00;;;;;;5093188;28;20036;-76
2022/04/20 09:17:19;;;;;;;0.68;0.50;;;13.90;88.50;;;;;;5093525;28;20046;-75
2022/04/20 09:19:53;;;;;;;0.55;0.43;;;14.00;88.60;;;;;;5093202;28;20051;-76
2022/04/20 09:22:24;;;;;;;0.43;0.43;;;13.90;85.40;;;;;;5076279;28;20044;-76
2022/04/20 09:25:03;;;;;;;0.75;0.70;;;14.00;87.40;;;;;;5092991;28;20127;-75
2022/04/20 09:27:30;;;;;;;1.50;0.82;;;14.10;88.90;;;;;;5093165;28;20094;-76
2022/04/20 09:29:58;;;;;;;1.83;0.60;;;14.20;89.50;;;;;;5076048;28;20084;-76
2022/04/20 09:32:54;;;;;;;1.17;0.57;;;14.20;86.70;;;;;;5076608;28;20047;-76
2022/04/20 09:35:20;;;;;;;1.40;0.70;;;14.30;86.80;;;;;;5084852;28;20052;-76
2022/04/20 09:38:03;;;;;;;2.95;0.70;;;14.30;85.80;;;;;;5076358;28;20545;-76
2022/04/20 09:40:33;;;;;;;0.73;0.57;;;14.40;84.20;;;;;;5075866;28;20036;-76
2022/04/20 09:43:06;;;;;;;0.53;0.50;;;14.30;82.60;;;;;;5092948;28;20068;-76
2022/04/20 09:45:33;;;;;;;1.02;0.60;;;14.30;80.30;;;;;;5092663;28;20051;-76
2022/04/20 09:51:11;;;;;;;0.90;0.52;;;14.50;81.80;;;;;;5092588;28;20059;-75
2022/04/20 09:53:40;;;;;;;0.80;0.63;;;14.50;81.30;;;;;;5092597;28;20044;-74
2022/04/20 09:56:35;;;;;;;0.82;0.47;;;14.70;84.10;;;;;;5092830;28;20035;-74
2022/04/20 09:59:04;;;;;;;1.85;0.50;;;14.70;83.10;;;;;;5066902;28;20044;-74
2022/04/20 10:01:34;;;;;;;1.67;0.82;;;15.00;85.80;;;;;;5093013;28;20502;-74
2022/04/20 10:04:02;;;;;;;2.10;0.73;;;15.10;81.90;;;;;;5092339;28;20044;-74
2022/04/20 10:06:28;;;;;;;1.08;0.57;;;15.10;83.10;;;;;;5075510;28;20285;-73
2022/04/20 10:08:54;;;;;;;1.88;0.60;;;15.10;82.30;;;;;;5092157;28;20123;-74
2022/04/20 10:11:24;;;;;;;0.47;0.47;;;15.30;84.60;;;;;;5058585;28;20067;-74
2022/04/20 10:16:54;;;;;;;0.95;0.70;;;15.60;83.90;;;;;;5071418;28;20048;-75
2022/04/20 10:19:30;;;;;;;1.42;0.70;;;15.60;81.80;;;;;;5075215;28;20052;-75
2022/04/20 10:21:57;;;;;;;0.98;0.50;;;15.70;83.10;;;;;;5091930;28;20074;-75
2022/04/20 10:24:33;;;;;;;0.75;0.43;;;15.90;91.60;;;;;;5075079;28;20044;-73
2022/04/20 10:27:32;;;;;;;0.68;0.50;;;15.90;92.50;;;;;;5075153;28;20036;-74
2022/04/20 10:30:07;;;;;;;1.77;0.80;;;15.90;92.40;;;;;;5091614;28;20135;-74
2022/04/20 10:32:53;;;;;;;1.75;0.85;;;15.90;92.20;;;;;;5074996;28;20043;-74
2022/04/20 10:35:21;;;;;;;1.85;0.50;;;15.70;88.70;;;;;;5091861;28;20116;-73
2022/04/20 10:38:08;;;;;;;1.33;0.60;;;15.60;91.00;;;;;;5075455;28;20050;-74
2022/04/20 10:40:34;;;;;;;0.50;0.47;;;15.90;91.40;;;;;;5074816;28;20039;-75
2022/04/20 10:43:20;;;;;;;1.42;0.75;;;15.80;90.30;;;;;;5091697;28;20067;-76
2022/04/20 10:46:17;;;;;;;1.77;0.95;;;15.70;89.70;;;;;;5091614;28;20093;-74
2022/04/20 10:49:02;;;;;;;1.42;0.85;;;15.70;88.20;;;;;;5075189;28;20039;-75
2022/04/20 10:51:32;;;;;;;1.35;0.77;;;15.80;90.80;;;;;;5091734;28;20047;-75
2022/04/20 10:54:24;;;;;;;0.60;0.60;;;15.70;89.60;;;;;;5074755;28;20063;-75
2022/04/20 10:57:09;;;;;;;0.45;0.45;;;15.80;88.80;;;;;;5074743;28;20047;-75
2022/04/20 10:59:35;;;;;;;0.95;0.70;;;15.90;90.50;;;;;;5091598;28;20040;-75
2022/04/20 11:02:03;;;;;;;2.10;0.70;;;15.80;88.40;;;;;;5091456;28;20040;-75
2022/04/20 11:04:48;;;;;;;0.90;0.80;;;15.80;89.30;;;;;;5091456;28;20040;-75
2022/04/20 11:07:22;;;;;;;2.53;0.60;;;15.90;90.40;;;;;;5074872;28;20048;-75
2022/04/20 11:09:49;;;;;;;0.85;0.68;;;15.80;87.00;;;;;;5091461;28;20040;-75
2022/04/20 11:21:12;;;;;;;1.40;0.70;;;16.00;87.60;;;;;;5089773;28;20052;-74
2022/04/20 11:24:03;;;;;;;0.47;0.38;;;15.90;87.40;;;;;;5091303;28;20503;-75
2022/04/20 11:26:35;;;;;;;0.68;0.63;;;15.90;84.40;;;;;;5075238;28;20115;-76
2022/04/20 11:29:11;;;;;;;0.30;0.30;;;15.90;87.00;;;;;;5094959;28;20048;-76
2022/04/20 11:31:42;;;;;;;0.45;0.40;;;16.00;85.80;;;;;;5095139;28;20051;-76
2022/04/20 11:34:09;;;;;;;1.50;0.60;;;16.00;86.70;;;;;;5078465;28;20048;-75
2022/04/20 11:36:41;;;;;;;0.98;0.50;;;16.10;85.70;;;;;;5078244;28;20040;-75
2022/04/20 11:39:09;;;;;;;0.52;0.50;;;15.90;85.40;;;;;;5078216;28;20140;-75
2022/04/20 11:41:35;;;;;;;1.08;0.55;;;16.00;86.20;;;;;;5078409;28;20127;-76
2022/04/20 11:44:02;;;;;;;3.20;0.75;;;16.20;86.70;;;;;;5095026;28;20032;-75
2022/04/20 11:46:27;;;;;;;0.77;0.50;;;16.20;85.60;;;;;;5095238;28;20483;-75
2022/04/20 11:48:57;;;;;;;0.82;0.60;;;16.20;84.80;;;;;;5078403;28;20084;-75
2022/04/20 11:51:31;;;;;;;1.67;0.70;;;16.20;84.30;;;;;;5094876;28;20086;-75
2022/04/20 11:53:56;;;;;;;0.77;0.52;;;16.10;80.70;;;;;;5094867;28;20040;-76
2022/04/20 11:56:36;;;;;;;0.80;0.65;;;16.10;82.80;;;;;;5077864;28;20043;-75
2022/04/20 11:59:06;;;;;;;0.60;0.45;;;16.20;83.10;;;;;;5094808;28;20048;-75
2022/04/20 12:01:36;;;;;;;1.60;0.90;;;16.10;80.80;;;;;;5094805;28;20044;-74
2022/04/20 12:04:19;;;;;;;0.35;0.35;;;16.50;86.10;;;;;;5077866;28;20044;-75
2022/04/20 12:06:56;;;;;;;0.32;0.32;;;16.50;84.00;;;;;;5094887;28;20032;-75
2022/04/20 12:09:30;;;;;;;0.60;0.35;;;16.50;82.90;;;;;;5095063;28;20790;-76
2022/04/20 12:12:01;;;;;;;0.40;0.40;;;16.70;83.60;;;;;;5077685;28;20042;-75
2022/04/20 12:14:27;;;;;;;;;;;16.80;86.20;;;;;;5095174;28;20072;-75
2022/04/20 12:16:58;;;;;;;0.98;0.60;;;16.70;81.80;;;;;;5094408;28;19919;-76
2022/04/20 12:19:24;;;;;;;0.70;0.47;;;16.80;81.80;;;;;;5094752;28;20087;-75
2022/04/20 12:21:50;;;;;;;1.08;0.50;;;16.90;77.50;;;;;;5094665;28;20078;-74
2022/04/20 12:24:25;;;;;;;1.30;0.60;;;17.00;70.30;;;;;;5094235;28;20044;-74
2022/04/20 12:26:53;;;;;;;0.40;0.40;;;16.80;69.30;;;;;;5077633;28;20483;-73
2022/04/20 12:29:21;;;;;;;2.05;0.47;;;16.90;71.50;;;;;;5094179;28;20126;-73
2022/04/20 12:31:49;;;;;;;0.55;0.35;;;17.00;70.90;;;;;;5094214;28;20048;-74
2022/04/20 12:34:17;;;;;;;0.55;0.55;;;17.00;72.20;;;;;;5094437;28;20586;-74
2022/04/20 12:37:15;;;;;;;1.02;0.70;;;17.10;73.60;;;;;;5094142;28;20056;-73
2022/04/20 12:39:44;;;;;;;0.60;0.40;;;17.10;70.80;;;;;;5093805;28;20048;-74
2022/04/20 12:42:12;;;;;;;1.10;0.63;;;17.10;72.90;;;;;;5094281;28;20122;-74
2022/04/20 12:44:52;;;;;;;0.63;0.50;;;17.20;72.80;;;;;;5077116;28;20036;-73
2022/04/20 12:47:18;;;;;;;0.73;0.60;;;17.40;74.80;;;;;;5093970;28;20123;-72
2022/04/20 12:49:45;;;;;;;1.55;0.65;;;17.30;70.40;;;;;;5094121;28;20054;-72
2022/04/20 12:52:17;;;;;;;1.52;0.80;;;17.20;72.30;;;;;;5093799;28;20043;-73
2022/04/20 12:55:06;;;;;;;0.90;0.60;;;17.20;73.50;;;;;;5094063;28;20040;-73
2022/04/20 13:03:10;;;;;;;0.73;0.52;;;17.20;71.80;;;;;;5093570;28;20083;-73
2022/04/20 13:05:38;;;;;;;0.85;0.57;;;17.00;71.80;;;;;;5076899;28;20036;-74
2022/04/20 13:08:05;;;;;;;2.33;0.73;;;17.00;70.30;;;;;;5093385;28;20040;-74
2022/04/20 13:10:34;;;;;;;0.60;0.45;;;17.00;71.70;;;;;;5093820;28;20043;-74
2022/04/20 13:13:00;;;;;;;3.10;0.50;;;17.30;74.10;;;;;;5093385;28;20036;-74
2022/04/20 13:15:29;;;;;;;1.20;0.57;;;17.40;74.00;;;;;;5093398;28;20046;-74
2022/04/20 13:17:57;;;;;;;0.55;0.43;;;17.50;73.50;;;;;;5060296;28;20069;-73
2022/04/20 13:20:23;;;;;;;1.13;0.70;;;17.60;74.10;;;;;;5093216;28;20054;-73
2022/04/20 13:22:49;;;;;;;1.30;0.75;;;17.60;71.90;;;;;;5093188;28;20044;-73
2022/04/20 13:27:59;;;;;;;0.60;0.50;;;17.60;72.20;;;;;;5078502;28;20047;-74
2022/04/20 13:30:35;;;;;;;1.25;0.70;;;17.90;94.20;;;;;;5093189;28;20036;-73
2022/04/20 13:33:05;;;;;;;1.35;0.70;;;17.90;90.90;;;;;;5076045;28;20040;-73
2022/04/20 13:35:32;;;;;;;1.13;0.80;;;17.80;91.40;;;;;;5076664;28;20043;-74
2022/04/20 13:37:58;;;;;;;1.75;0.77;;;17.90;91.60;;;;;;5076001;28;20122;-74
2022/04/20 13:40:25;;;;;;;0.50;0.50;;;17.90;92.10;;;;;;5075669;28;20044;-76
2022/04/20 13:42:51;;;;;;;1.67;0.80;;;17.90;92.50;;;;;;5075642;28;20071;-74